aviador You're here:

CYZU Decoded Metar

WHITECOURT in AB, CANADA
Report Time2018-05-28 03:00:00
UTC Time2018-05-28 03:53:19
Flight Rules vfr VFR
Wind070° at 05 kt
W.Decomp.*RWY 11: 2.6 kt HW 4.3 kt LCW
W.Rank070° ranks 19
Current wind is below 070° avg. (5.2)
Visibility9999 m
Phenomena:N/A
Clouds:Broken 110 Hf
Broken 240 Hf
Expected CloudBase > 4,800 ft AGL from Temp-Dew spread
Ceiling11,000 ft
Temp19°C (ISA +9)
Dew Point07°C (46% RH)
AAT16.5°C
QNH1014 hPa
Density Alt3,747 ft
Elevation2,575 ft
Report Wrong Elevation
Raw Report
CYZU 280300Z 07005KT 15SM BKN110 BKN240 19/07 A2993 RMK AC6CI1
SLP142 DENSITY ALT 3700FT=

Extra information for CYZU:More info

Metar Taf Metar & Taf Last 4 Metars F.Rules Stats Wind Profile Meteogram Temp Stats Airport Information Weather charts Add Link Nearby VenuesMetar ALERT Operation Metar Decoded Social comments